HNT1988 TNCM-TJSJ
Flight info
| Callsign | HNT1988 |
|---|---|
| Flight time | 0h 42m |
| Altitude | 18000 |
| Route | PJM R760 COY RTE4 VEDAS |
| Aircraft | A320/M-SDE3FGHIRWY/LB1 |
Departure
| Time | 2026-05-03 20:56 |
|---|---|
| Airport | Princess Juliana International Airport (TNCM) |
Arrival
| Time | 2026-05-03 21:38 |
|---|---|
| Airport | Luis Munoz Marin International Airport (TJSJ) |
| Time | Latitude | Longitude | Altitude | Speed | Heading |
|---|---|---|---|---|---|
| 2026-05-03 20:17 | 18.04343 | -63.11294 | 21 ft | 0 kts | 352° |
| 2026-05-03 20:35 | 18.04324 | -63.11292 | 21 ft | 4 kts | 355° |
| 2026-05-03 20:35 | 18.04296 | -63.11290 | 21 ft | 4 kts | 358° |
| 2026-05-03 20:36 | 18.04271 | -63.11287 | 23 ft | 4 kts | 322° |
| 2026-05-03 20:36 | 18.04264 | -63.11286 | 21 ft | 0 kts | 241° |
| 2026-05-03 20:43 | 18.04264 | -63.11287 | 21 ft | 2 kts | 241° |
| 2026-05-03 20:44 | 18.04239 | -63.11364 | 21 ft | 14 kts | 259° |
| 2026-05-03 20:44 | 18.04223 | -63.11462 | 21 ft | 13 kts | 252° |
| 2026-05-03 20:44 | 18.04177 | -63.11536 | 23 ft | 11 kts | 234° |
| 2026-05-03 20:44 | 18.04134 | -63.11598 | 21 ft | 10 kts | 230° |
| 2026-05-03 20:45 | 18.04091 | -63.11650 | 22 ft | 9 kts | 229° |
| 2026-05-03 20:45 | 18.04064 | -63.11703 | 21 ft | 8 kts | 254° |
| 2026-05-03 20:45 | 18.04058 | -63.11737 | 21 ft | 0 kts | 260° |
| 2026-05-03 20:47 | 18.04050 | -63.11786 | 21 ft | 14 kts | 261° |
| 2026-05-03 20:47 | 18.04042 | -63.11846 | 21 ft | 0 kts | 261° |
| 2026-05-03 20:51 | 18.04036 | -63.11877 | 21 ft | 8 kts | 256° |
| 2026-05-03 20:52 | 18.04013 | -63.11925 | 21 ft | 7 kts | 237° |
| 2026-05-03 20:52 | 18.03978 | -63.11960 | 22 ft | 10 kts | 199° |
| 2026-05-03 20:52 | 18.03944 | -63.11927 | 22 ft | 6 kts | 73° |
| 2026-05-03 20:52 | 18.03950 | -63.11897 | 22 ft | 0 kts | 82° |
| 2026-05-03 20:55 | 18.03950 | -63.11895 | 22 ft | 2 kts | 82° |
| 2026-05-03 20:55 | 18.03987 | -63.11632 | 22 ft | 77 kts | 81° |
| 2026-05-03 20:55 | 18.04101 | -63.10846 | 26 ft | 141 kts | 82° |
| 2026-05-03 20:56 | 18.04217 | -63.09722 | 492 ft | 154 kts | 91° |
| 2026-05-03 20:56 | 18.03919 | -63.08633 | 1158 ft | 160 kts | 124° |
| 2026-05-03 20:56 | 18.03084 | -63.07863 | 1927 ft | 160 kts | 150° |
| 2026-05-03 20:56 | 18.02011 | -63.07466 | 2455 ft | 176 kts | 162° |
| 2026-05-03 20:57 | 18.00730 | -63.07158 | 2882 ft | 199 kts | 165° |
| 2026-05-03 20:57 | 17.99295 | -63.06841 | 3357 ft | 218 kts | 165° |
| 2026-05-03 20:57 | 17.97706 | -63.06495 | 3896 ft | 237 kts | 165° |
| 2026-05-03 20:57 | 17.96072 | -63.06136 | 4716 ft | 242 kts | 165° |
| 2026-05-03 20:58 | 17.94355 | -63.05754 | 5294 ft | 261 kts | 165° |
| 2026-05-03 20:58 | 17.92548 | -63.05358 | 6092 ft | 269 kts | 165° |
| 2026-05-03 20:58 | 17.90691 | -63.04948 | 6981 ft | 274 kts | 165° |
| 2026-05-03 20:58 | 17.88800 | -63.04566 | 7839 ft | 280 kts | 172° |
| 2026-05-03 20:59 | 17.86838 | -63.04778 | 8622 ft | 292 kts | 197° |
| 2026-05-03 20:59 | 17.85094 | -63.05895 | 9400 ft | 302 kts | 224° |
| 2026-05-03 20:59 | 17.83981 | -63.07791 | 10185 ft | 310 kts | 252° |
| 2026-05-03 20:59 | 17.83781 | -63.10070 | 10737 ft | 326 kts | 276° |
| 2026-05-03 21:00 | 17.84145 | -63.12495 | 11018 ft | 347 kts | 280° |
| 2026-05-03 21:00 | 17.84444 | -63.14197 | 11427 ft | 353 kts | 281° |
| 2026-05-03 21:00 | 17.85063 | -63.17569 | 12419 ft | 357 kts | 281° |
| 2026-05-03 21:00 | 17.85536 | -63.20142 | 13214 ft | 360 kts | 281° |
| 2026-05-03 21:01 | 17.86000 | -63.22735 | 13952 ft | 363 kts | 280° |
| 2026-05-03 21:01 | 17.86455 | -63.25355 | 14691 ft | 366 kts | 280° |
| 2026-05-03 21:01 | 17.86904 | -63.27994 | 15391 ft | 369 kts | 279° |
| 2026-05-03 21:01 | 17.87349 | -63.30649 | 16064 ft | 372 kts | 279° |
| 2026-05-03 21:02 | 17.87802 | -63.33371 | 16747 ft | 375 kts | 279° |
| 2026-05-03 21:02 | 17.88259 | -63.36098 | 17422 ft | 377 kts | 279° |
| 2026-05-03 21:02 | 17.88712 | -63.38791 | 17893 ft | 379 kts | 279° |
| 2026-05-03 21:02 | 17.89177 | -63.41533 | 18028 ft | 379 kts | 279° |
| 2026-05-03 21:03 | 17.89638 | -63.44239 | 18054 ft | 378 kts | 279° |
| 2026-05-03 21:03 | 17.90100 | -63.46950 | 18055 ft | 377 kts | 279° |
| 2026-05-03 21:03 | 17.90557 | -63.49662 | 18054 ft | 377 kts | 279° |
| 2026-05-03 21:03 | 17.91012 | -63.52383 | 18054 ft | 377 kts | 279° |
| 2026-05-03 21:04 | 17.91465 | -63.55091 | 18056 ft | 377 kts | 279° |
| 2026-05-03 21:04 | 17.91919 | -63.57802 | 18063 ft | 377 kts | 279° |
| 2026-05-03 21:04 | 17.92372 | -63.60507 | 18063 ft | 377 kts | 279° |
| 2026-05-03 21:04 | 17.92828 | -63.63238 | 18065 ft | 377 kts | 279° |
| 2026-05-03 21:05 | 17.93162 | -63.65954 | 18065 ft | 376 kts | 271° |
| 2026-05-03 21:05 | 17.93018 | -63.68638 | 18065 ft | 376 kts | 261° |
| 2026-05-03 21:05 | 17.92523 | -63.71337 | 18065 ft | 376 kts | 258° |
| 2026-05-03 21:05 | 17.92005 | -63.74071 | 18065 ft | 376 kts | 258° |
| 2026-05-03 21:06 | 17.91487 | -63.76770 | 18066 ft | 377 kts | 258° |
| 2026-05-03 21:06 | 17.90969 | -63.79454 | 18067 ft | 377 kts | 258° |
| 2026-05-03 21:06 | 17.90451 | -63.82154 | 18068 ft | 377 kts | 258° |
| 2026-05-03 21:06 | 17.89932 | -63.84857 | 18068 ft | 376 kts | 258° |
| 2026-05-03 21:07 | 17.89415 | -63.87552 | 18069 ft | 377 kts | 258° |
| 2026-05-03 21:07 | 17.88897 | -63.90266 | 18070 ft | 376 kts | 258° |
| 2026-05-03 21:07 | 17.88388 | -63.92932 | 18073 ft | 376 kts | 258° |
| 2026-05-03 21:07 | 17.87865 | -63.95664 | 18070 ft | 376 kts | 258° |
| 2026-05-03 21:08 | 17.87350 | -63.98351 | 18068 ft | 376 kts | 258° |
| 2026-05-03 21:08 | 17.86836 | -64.01038 | 18067 ft | 376 kts | 258° |
| 2026-05-03 21:08 | 17.86323 | -64.03729 | 18064 ft | 376 kts | 258° |
| 2026-05-03 21:08 | 17.85808 | -64.06420 | 18063 ft | 376 kts | 258° |
| 2026-05-03 21:09 | 17.85293 | -64.09108 | 18061 ft | 375 kts | 258° |
| 2026-05-03 21:09 | 17.84774 | -64.11797 | 18061 ft | 375 kts | 258° |
| 2026-05-03 21:09 | 17.84254 | -64.14489 | 18060 ft | 376 kts | 258° |
| 2026-05-03 21:09 | 17.83735 | -64.17175 | 18062 ft | 375 kts | 258° |
| 2026-05-03 21:10 | 17.83214 | -64.19860 | 18063 ft | 375 kts | 259° |
| 2026-05-03 21:10 | 17.82695 | -64.22545 | 18064 ft | 375 kts | 259° |
| 2026-05-03 21:10 | 17.82166 | -64.25275 | 18065 ft | 375 kts | 259° |
| 2026-05-03 21:10 | 17.81645 | -64.27966 | 18065 ft | 375 kts | 259° |
| 2026-05-03 21:11 | 17.81303 | -64.29742 | 18070 ft | 375 kts | 259° |
| 2026-05-03 21:11 | 17.80783 | -64.32429 | 18077 ft | 376 kts | 259° |
| 2026-05-03 21:11 | 17.80264 | -64.35102 | 18079 ft | 376 kts | 259° |
| 2026-05-03 21:11 | 17.79738 | -64.37803 | 18079 ft | 376 kts | 258° |
| 2026-05-03 21:12 | 17.79213 | -64.40500 | 18081 ft | 376 kts | 259° |
| 2026-05-03 21:12 | 17.78689 | -64.43200 | 18075 ft | 376 kts | 259° |
| 2026-05-03 21:12 | 17.78166 | -64.45895 | 18076 ft | 376 kts | 259° |
| 2026-05-03 21:12 | 17.77649 | -64.48557 | 18076 ft | 376 kts | 259° |
| 2026-05-03 21:13 | 17.77123 | -64.51266 | 18076 ft | 376 kts | 259° |
| 2026-05-03 21:13 | 17.76600 | -64.53949 | 18076 ft | 375 kts | 258° |
| 2026-05-03 21:13 | 17.76078 | -64.56635 | 18076 ft | 375 kts | 258° |
| 2026-05-03 21:13 | 17.75555 | -64.59320 | 18072 ft | 376 kts | 258° |
| 2026-05-03 21:14 | 17.75027 | -64.62014 | 18073 ft | 376 kts | 258° |
| 2026-05-03 21:14 | 17.74499 | -64.64700 | 18067 ft | 376 kts | 258° |
| 2026-05-03 21:14 | 17.73972 | -64.67379 | 18066 ft | 376 kts | 259° |
| 2026-05-03 21:14 | 17.73714 | -64.70112 | 18061 ft | 376 kts | 271° |
| 2026-05-03 21:15 | 17.74009 | -64.72818 | 18061 ft | 375 kts | 282° |
| 2026-05-03 21:15 | 17.74604 | -64.75494 | 18069 ft | 375 kts | 283° |
| 2026-05-03 21:15 | 17.75183 | -64.78159 | 18069 ft | 376 kts | 282° |
| 2026-05-03 21:15 | 17.75747 | -64.80822 | 18068 ft | 376 kts | 282° |
| 2026-05-03 21:16 | 17.76308 | -64.83513 | 18070 ft | 376 kts | 282° |
| 2026-05-03 21:16 | 17.76866 | -64.86193 | 18070 ft | 375 kts | 282° |
| 2026-05-03 21:16 | 17.77426 | -64.88881 | 18069 ft | 375 kts | 282° |
| 2026-05-03 21:16 | 17.77983 | -64.91548 | 18071 ft | 375 kts | 282° |
| 2026-05-03 21:17 | 17.78542 | -64.94223 | 18068 ft | 375 kts | 282° |
| 2026-05-03 21:17 | 17.78919 | -64.96032 | 18073 ft | 375 kts | 282° |
| 2026-05-03 21:17 | 17.79667 | -64.99610 | 18076 ft | 375 kts | 282° |
| 2026-05-03 21:17 | 17.80216 | -65.02250 | 18073 ft | 375 kts | 282° |
| 2026-05-03 21:18 | 17.80771 | -65.04925 | 18068 ft | 375 kts | 282° |
| 2026-05-03 21:18 | 17.81334 | -65.07630 | 18066 ft | 375 kts | 282° |
| 2026-05-03 21:18 | 17.81891 | -65.10292 | 18064 ft | 375 kts | 282° |
| 2026-05-03 21:18 | 17.82452 | -65.12967 | 18062 ft | 375 kts | 282° |
| 2026-05-03 21:19 | 17.83014 | -65.15648 | 18061 ft | 375 kts | 282° |
| 2026-05-03 21:19 | 17.83567 | -65.18287 | 18060 ft | 375 kts | 282° |
| 2026-05-03 21:19 | 17.84131 | -65.20998 | 18061 ft | 375 kts | 282° |
| 2026-05-03 21:19 | 17.84683 | -65.23667 | 18064 ft | 374 kts | 282° |
| 2026-05-03 21:20 | 17.85238 | -65.26338 | 18067 ft | 374 kts | 282° |
| 2026-05-03 21:20 | 17.85794 | -65.29008 | 18078 ft | 374 kts | 282° |
| 2026-05-03 21:20 | 17.86348 | -65.31673 | 18080 ft | 375 kts | 282° |
| 2026-05-03 21:20 | 17.86903 | -65.34348 | 18076 ft | 375 kts | 282° |
| 2026-05-03 21:21 | 17.87460 | -65.37026 | 18075 ft | 375 kts | 282° |
| 2026-05-03 21:21 | 17.88015 | -65.39697 | 18076 ft | 375 kts | 282° |
| 2026-05-03 21:21 | 17.88579 | -65.42413 | 18075 ft | 375 kts | 282° |
| 2026-05-03 21:21 | 17.89127 | -65.45054 | 18077 ft | 375 kts | 282° |
| 2026-05-03 21:22 | 17.89688 | -65.47753 | 18077 ft | 375 kts | 282° |
| 2026-05-03 21:22 | 17.90243 | -65.50430 | 18076 ft | 374 kts | 282° |
| 2026-05-03 21:22 | 17.90796 | -65.53098 | 18076 ft | 374 kts | 282° |
| 2026-05-03 21:22 | 17.91346 | -65.55769 | 18075 ft | 374 kts | 281° |
| 2026-05-03 21:23 | 17.91600 | -65.58477 | 18080 ft | 373 kts | 266° |
| 2026-05-03 21:23 | 17.91076 | -65.61101 | 18086 ft | 372 kts | 250° |
| 2026-05-03 21:23 | 17.90295 | -65.63692 | 18075 ft | 372 kts | 261° |
| 2026-05-03 21:23 | 17.90313 | -65.66432 | 18068 ft | 373 kts | 280° |
| 2026-05-03 21:24 | 17.91196 | -65.68979 | 18064 ft | 374 kts | 298° |
| 2026-05-03 21:24 | 17.92501 | -65.71316 | 18036 ft | 364 kts | 300° |
| 2026-05-03 21:24 | 17.93806 | -65.73563 | 17802 ft | 356 kts | 302° |
| 2026-05-03 21:24 | 17.95353 | -65.75570 | 17416 ft | 353 kts | 311° |
| 2026-05-03 21:25 | 17.97029 | -65.77447 | 16975 ft | 351 kts | 312° |
| 2026-05-03 21:25 | 17.98699 | -65.79305 | 16542 ft | 349 kts | 312° |
| 2026-05-03 21:25 | 18.00361 | -65.81159 | 16114 ft | 348 kts | 313° |
| 2026-05-03 21:25 | 18.02137 | -65.82898 | 15685 ft | 346 kts | 317° |
| 2026-05-03 21:26 | 18.03941 | -65.84546 | 15257 ft | 345 kts | 319° |
| 2026-05-03 21:26 | 18.05777 | -65.86185 | 14834 ft | 344 kts | 319° |
| 2026-05-03 21:26 | 18.07585 | -65.87785 | 14627 ft | 334 kts | 319° |
| 2026-05-03 21:26 | 18.09309 | -65.89313 | 14488 ft | 313 kts | 319° |
| 2026-05-03 21:27 | 18.10918 | -65.90742 | 14366 ft | 293 kts | 319° |
| 2026-05-03 21:27 | 18.12444 | -65.92104 | 14222 ft | 276 kts | 319° |
| 2026-05-03 21:27 | 18.13880 | -65.93391 | 13864 ft | 268 kts | 319° |
| 2026-05-03 21:27 | 18.15291 | -65.94659 | 13394 ft | 266 kts | 319° |
| 2026-05-03 21:28 | 18.16689 | -65.95915 | 12902 ft | 264 kts | 319° |
| 2026-05-03 21:28 | 18.18076 | -65.97161 | 12450 ft | 263 kts | 320° |
| 2026-05-03 21:28 | 18.19488 | -65.98427 | 11804 ft | 268 kts | 320° |
| 2026-05-03 21:28 | 18.20913 | -65.99707 | 11184 ft | 270 kts | 320° |
| 2026-05-03 21:29 | 18.22331 | -66.00982 | 10557 ft | 271 kts | 320° |
| 2026-05-03 21:29 | 18.23773 | -66.02276 | 9925 ft | 272 kts | 320° |
| 2026-05-03 21:29 | 18.25210 | -66.03568 | 9303 ft | 272 kts | 321° |
| 2026-05-03 21:29 | 18.26655 | -66.04869 | 8678 ft | 273 kts | 321° |
| 2026-05-03 21:30 | 18.28103 | -66.06172 | 8046 ft | 274 kts | 321° |
| 2026-05-03 21:30 | 18.29563 | -66.07487 | 7421 ft | 273 kts | 321° |
| 2026-05-03 21:30 | 18.30991 | -66.08774 | 6989 ft | 265 kts | 321° |
| 2026-05-03 21:30 | 18.32345 | -66.09996 | 6617 ft | 257 kts | 321° |
| 2026-05-03 21:31 | 18.33706 | -66.11222 | 6240 ft | 251 kts | 321° |
| 2026-05-03 21:31 | 18.35022 | -66.12409 | 5667 ft | 254 kts | 320° |
| 2026-05-03 21:31 | 18.36373 | -66.13627 | 5036 ft | 256 kts | 320° |
| 2026-05-03 21:31 | 18.37732 | -66.14847 | 4422 ft | 258 kts | 321° |
| 2026-05-03 21:32 | 18.39095 | -66.16072 | 3802 ft | 259 kts | 321° |
| 2026-05-03 21:32 | 18.40443 | -66.17287 | 3247 ft | 256 kts | 321° |
| 2026-05-03 21:32 | 18.41788 | -66.18503 | 2703 ft | 254 kts | 321° |
| 2026-05-03 21:32 | 18.43122 | -66.19705 | 2170 ft | 251 kts | 323° |
| 2026-05-03 21:33 | 18.44606 | -66.20455 | 1977 ft | 225 kts | 359° |
| 2026-05-03 21:33 | 18.45988 | -66.20143 | 1993 ft | 188 kts | 36° |
| 2026-05-03 21:33 | 18.46807 | -66.19241 | 1989 ft | 160 kts | 65° |
| 2026-05-03 21:33 | 18.47061 | -66.18143 | 1992 ft | 149 kts | 91° |
| 2026-05-03 21:34 | 18.46831 | -66.17102 | 1988 ft | 146 kts | 115° |
| 2026-05-03 21:34 | 18.46368 | -66.16164 | 1991 ft | 145 kts | 116° |
| 2026-05-03 21:34 | 18.45908 | -66.15226 | 1988 ft | 142 kts | 116° |
| 2026-05-03 21:34 | 18.45455 | -66.14305 | 1990 ft | 141 kts | 116° |
| 2026-05-03 21:35 | 18.45156 | -66.13696 | 1986 ft | 140 kts | 116° |
| 2026-05-03 21:35 | 18.44561 | -66.12483 | 1986 ft | 141 kts | 116° |
| 2026-05-03 21:35 | 18.44251 | -66.11853 | 1989 ft | 141 kts | 116° |
| 2026-05-03 21:35 | 18.43797 | -66.10934 | 1989 ft | 140 kts | 116° |
| 2026-05-03 21:36 | 18.43422 | -66.09988 | 1989 ft | 140 kts | 102° |
| 2026-05-03 21:36 | 18.43373 | -66.08963 | 1984 ft | 141 kts | 89° |
| 2026-05-03 21:36 | 18.43372 | -66.07929 | 1689 ft | 139 kts | 94° |
| 2026-05-03 21:36 | 18.43334 | -66.06903 | 1347 ft | 138 kts | 90° |
| 2026-05-03 21:37 | 18.43350 | -66.05893 | 1044 ft | 138 kts | 89° |
| 2026-05-03 21:37 | 18.43346 | -66.04887 | 773 ft | 137 kts | 90° |
| 2026-05-03 21:37 | 18.43336 | -66.03877 | 550 ft | 139 kts | 90° |
| 2026-05-03 21:37 | 18.43350 | -66.02858 | 332 ft | 139 kts | 88° |
| 2026-05-03 21:38 | 18.43338 | -66.01878 | 136 ft | 140 kts | 90° |
| 2026-05-03 21:38 | 18.43346 | -66.00874 | 40 ft | 138 kts | 89° |
| 2026-05-03 21:38 | 18.43351 | -65.99945 | 20 ft | 101 kts | 90° |
| 2026-05-03 21:38 | 18.43369 | -65.99585 | 21 ft | 21 kts | 59° |
| 2026-05-03 21:39 | 18.43456 | -65.99567 | 19 ft | 5 kts | 283° |
| 2026-05-03 21:39 | 18.43461 | -65.99603 | 19 ft | 5 kts | 275° |
| 2026-05-03 21:39 | 18.43462 | -65.99640 | 19 ft | 5 kts | 272° |
| 2026-05-03 21:39 | 18.43463 | -65.99678 | 19 ft | 5 kts | 270° |
| 2026-05-03 21:40 | 18.43463 | -65.99712 | 19 ft | 4 kts | 269° |
| 2026-05-03 21:40 | 18.43462 | -65.99742 | 19 ft | 4 kts | 269° |
| 2026-05-03 21:40 | 18.43461 | -65.99768 | 19 ft | 3 kts | 269° |
| 2026-05-03 21:40 | 18.43461 | -65.99790 | 19 ft | 3 kts | 269° |
| 2026-05-03 21:41 | 18.43461 | -65.99806 | 19 ft | 2 kts | 269° |
| 2026-05-03 21:41 | 18.43461 | -65.99817 | 20 ft | 1 kts | 270° |
| 2026-05-03 21:41 | 18.43461 | -65.99828 | 21 ft | 2 kts | 274° |
| 2026-05-03 21:41 | 18.43462 | -65.99839 | 19 ft | 1 kts | 274° |
| 2026-05-03 21:42 | 18.43462 | -65.99845 | 19 ft | 0 kts | 274° |
| 2026-05-03 21:42 | 18.43463 | -65.99855 | 19 ft | 6 kts | 272° |
| 2026-05-03 21:42 | 18.43473 | -65.99891 | 19 ft | 5 kts | 307° |
| 2026-05-03 21:42 | 18.43501 | -65.99906 | 20 ft | 4 kts | 345° |
| 2026-05-03 21:43 | 18.43509 | -65.99908 | 19 ft | 0 kts | 345° |
| 2026-05-03 21:44 | 18.43513 | -65.99909 | 19 ft | 3 kts | 345° |
| 2026-05-03 21:44 | 18.43533 | -65.99918 | 19 ft | 3 kts | 332° |
| 2026-05-03 21:44 | 18.43549 | -65.99930 | 19 ft | 2 kts | 320° |
| 2026-05-03 21:44 | 18.43558 | -65.99949 | 19 ft | 4 kts | 292° |
| 2026-05-03 21:45 | 18.43564 | -65.99974 | 19 ft | 3 kts | 279° |
| 2026-05-03 21:45 | 18.43562 | -65.99999 | 19 ft | 4 kts | 267° |
| 2026-05-03 21:45 | 18.43561 | -66.00041 | 19 ft | 6 kts | 270° |
| 2026-05-03 21:45 | 18.43560 | -66.00081 | 19 ft | 5 kts | 268° |
| 2026-05-03 21:46 | 18.43560 | -66.00116 | 19 ft | 4 kts | 270° |
| 2026-05-03 21:46 | 18.43568 | -66.00140 | 20 ft | 3 kts | 319° |
| 2026-05-03 21:46 | 18.43583 | -66.00143 | 19 ft | 2 kts | 353° |
| 2026-05-03 21:46 | 18.43600 | -66.00143 | 19 ft | 2 kts | 2° |
| 2026-05-03 21:47 | 18.43613 | -66.00142 | 19 ft | 2 kts | 4° |
| 2026-05-03 21:47 | 18.43622 | -66.00141 | 19 ft | 1 kts | 4° |
| 2026-05-03 21:47 | 18.43623 | -66.00141 | 19 ft | 0 kts | 4° |